createdAt,value
2017-08-25T17:51:32.683Z,3.93
2017-08-25T17:52:35.298Z,3.80
2017-08-25T17:53:37.912Z,3.73
2017-08-25T17:54:40.763Z,3.70
2017-08-25T17:55:44.234Z,3.60
2017-08-25T17:56:47.764Z,4.00
2017-08-25T17:57:51.053Z,3.27
2017-08-25T17:58:53.614Z,3.53
2017-08-25T17:59:56.257Z,3.70
2017-08-25T18:01:00.983Z,3.20
2017-08-25T18:02:03.559Z,3.00
2017-08-25T18:03:07.445Z,3.03
2017-08-25T18:04:10.035Z,3.50
2017-08-25T18:05:12.924Z,3.00
2017-08-25T18:06:15.468Z,3.90
2017-08-25T18:07:18.042Z,3.37
2017-08-25T18:08:20.565Z,3.67
2017-08-25T18:09:24.087Z,2.93
2017-08-25T18:10:26.628Z,3.27
2017-08-25T18:11:29.186Z,3.53
2017-08-25T18:12:32.176Z,3.73
2017-08-25T18:13:35.022Z,3.73
2017-08-25T18:14:37.546Z,3.90
2017-08-25T18:15:40.569Z,4.90
2017-08-25T18:16:43.210Z,4.50
2017-08-25T18:17:45.952Z,4.33
2017-08-25T18:18:48.566Z,3.73
2017-08-25T18:19:51.871Z,4.10
2017-08-25T18:20:54.406Z,3.70
2017-08-25T18:21:56.976Z,3.23
2017-08-25T18:22:59.612Z,3.90
2017-08-25T18:24:02.532Z,3.27
2017-08-25T18:25:05.171Z,3.37
2017-08-25T18:26:07.910Z,4.00
2017-08-25T18:27:10.455Z,3.30
2017-08-25T18:28:12.991Z,3.37
2017-08-25T18:29:15.544Z,3.70
2017-08-25T18:30:18.074Z,3.67
2017-08-25T18:31:20.941Z,4.07
2017-08-25T18:32:24.237Z,4.30
2017-08-25T18:33:26.880Z,3.50
2017-08-25T18:34:29.525Z,3.33
2017-08-25T18:35:32.954Z,4.00
2017-08-25T18:36:36.710Z,4.40
2017-08-25T18:37:39.264Z,4.00
2017-08-25T18:38:41.877Z,3.83
2017-08-25T18:39:44.927Z,3.50
2017-08-25T18:40:47.524Z,3.97
2017-08-25T18:41:50.275Z,3.83
2017-08-25T18:42:53.031Z,4.43
2017-08-25T18:43:55.740Z,3.93
2017-08-25T18:44:58.297Z,4.20
2017-08-25T18:46:00.836Z,3.90
2017-08-25T18:47:03.371Z,4.00
2017-08-25T18:48:05.944Z,4.33
2017-08-25T18:49:08.572Z,4.30
2017-08-25T18:50:11.286Z,3.60
2017-08-25T18:51:14.011Z,3.77
2017-08-25T18:52:16.752Z,4.77
2017-08-25T18:53:19.373Z,4.50
2017-08-25T18:54:21.911Z,3.80
2017-08-25T18:55:24.435Z,4.73
2017-08-25T18:56:27.063Z,4.10
2017-08-25T18:57:29.674Z,5.30
2017-08-25T18:58:32.239Z,3.90
2017-08-25T18:59:34.790Z,3.97
2017-08-25T19:00:37.458Z,4.00
2017-08-25T19:01:39.999Z,4.60
2017-08-25T19:02:43.350Z,3.80
2017-08-25T19:03:45.972Z,4.80
2017-08-25T19:04:48.600Z,4.60
2017-08-25T19:05:51.226Z,5.60
2017-08-25T19:06:53.859Z,4.40
2017-08-25T19:07:56.427Z,4.27
2017-08-25T19:08:58.989Z,4.20
2017-08-25T19:10:01.827Z,5.33
2017-08-25T19:11:04.467Z,4.30
2017-08-25T19:12:06.998Z,4.70
2017-08-25T19:13:09.533Z,4.63
2017-08-25T19:14:12.070Z,4.57
2017-08-25T19:15:14.617Z,4.33
2017-08-25T19:16:17.203Z,4.67
2017-08-25T19:17:20.527Z,4.40
2017-08-25T19:18:23.183Z,4.50
2017-08-25T19:19:26.012Z,4.73
2017-08-25T19:20:28.565Z,4.27
2017-08-25T19:21:31.246Z,4.80
2017-08-25T19:22:33.927Z,5.00
2017-08-25T19:23:36.528Z,4.93
2017-08-25T19:24:39.139Z,5.03
2017-08-25T19:25:41.676Z,5.90
2017-08-25T19:26:44.494Z,4.57
2017-08-25T19:27:47.050Z,5.40
2017-08-25T19:28:49.648Z,5.40
2017-08-25T19:29:52.256Z,5.00
2017-08-25T19:30:54.915Z,5.47
2017-08-25T19:31:57.441Z,5.20
2017-08-25T19:33:00.242Z,5.80
2017-08-25T19:34:02.779Z,5.47
2017-08-25T19:35:05.354Z,6.30
2017-08-25T19:36:07.878Z,5.17
2017-08-25T19:37:11.232Z,5.57
2017-08-25T19:38:13.762Z,5.90
2017-08-25T19:39:16.609Z,5.07
2017-08-25T19:40:22.862Z,5.60
2017-08-25T19:41:25.486Z,6.17
2017-08-25T19:42:28.835Z,5.73
2017-08-25T19:43:32.688Z,5.43
2017-08-25T19:44:35.630Z,5.33
2017-08-25T19:45:40.191Z,5.40
2017-08-25T19:46:47.209Z,5.73
2017-08-25T19:47:53.145Z,5.73
2017-08-25T19:48:56.263Z,4.90
2017-08-25T19:50:01.944Z,5.40
2017-08-25T19:51:05.448Z,5.83
2017-08-25T19:52:10.176Z,5.87
2017-08-25T19:53:14.099Z,5.13
2017-08-25T19:54:17.317Z,5.20
2017-08-25T19:55:22.568Z,5.33
2017-08-25T19:56:27.498Z,5.30
2017-08-25T19:57:30.407Z,5.27
2017-08-25T19:58:34.072Z,5.33
2017-08-25T19:59:37.028Z,6.00
2017-08-25T20:00:39.939Z,5.70
2017-08-25T20:01:43.986Z,6.47
2017-08-25T20:02:46.883Z,6.43
2017-08-25T20:03:50.542Z,6.10
2017-08-25T20:04:54.891Z,5.60
2017-08-25T20:05:57.720Z,5.33
2017-08-25T20:07:00.900Z,5.53
2017-08-25T20:08:04.838Z,4.90
2017-08-25T20:09:07.978Z,5.87
2017-08-25T20:10:11.391Z,5.97
2017-08-25T20:11:13.927Z,5.80
2017-08-25T20:12:16.598Z,5.40
2017-08-25T20:13:19.132Z,5.47
2017-08-25T20:14:22.464Z,5.90
2017-08-25T20:15:25.027Z,5.20
2017-08-25T20:16:29.015Z,5.53
2017-08-25T20:17:31.616Z,5.93
2017-08-25T20:18:34.159Z,5.40
2017-08-25T20:19:36.809Z,4.97
2017-08-25T20:20:39.588Z,5.63
2017-08-25T20:21:42.167Z,5.77
2017-08-25T20:22:45.487Z,6.37
2017-08-25T20:23:48.041Z,6.33
2017-08-25T20:24:52.211Z,5.80
2017-08-25T20:25:54.988Z,6.33
2017-08-25T20:26:58.411Z,6.10
2017-08-25T20:28:01.177Z,6.00
2017-08-25T20:29:04.564Z,5.23
2017-08-25T20:30:07.144Z,5.63
2017-08-25T20:31:09.745Z,6.17
2017-08-25T20:32:13.090Z,6.03
2017-08-25T20:33:16.383Z,6.10
2017-08-25T20:34:18.941Z,6.20
2017-08-25T20:35:22.280Z,5.30
2017-08-25T20:36:25.565Z,6.20
2017-08-25T20:37:28.136Z,5.63
2017-08-25T20:38:31.475Z,5.67
2017-08-25T20:39:34.113Z,6.20
2017-08-25T20:40:39.946Z,5.87
2017-08-25T20:41:44.402Z,5.30
2017-08-25T20:42:47.117Z,6.10
2017-08-25T20:43:49.799Z,6.23
2017-08-25T20:44:53.926Z,6.03
2017-08-25T20:45:56.553Z,4.90
2017-08-25T20:46:59.199Z,5.50
2017-08-25T20:48:01.775Z,5.83
2017-08-25T20:49:04.429Z,5.70
2017-08-25T20:50:06.968Z,5.90
2017-08-25T20:51:09.673Z,6.20
2017-08-25T20:52:12.315Z,5.73
2017-08-25T20:53:14.854Z,5.70
2017-08-25T20:54:19.241Z,5.90
2017-08-25T20:55:21.917Z,6.63
2017-08-25T20:56:24.568Z,5.83
2017-08-25T20:57:27.482Z,5.50
2017-08-25T20:58:30.970Z,5.70
2017-08-25T20:59:34.994Z,5.30
2017-08-25T21:00:37.567Z,6.03
2017-08-25T21:01:40.627Z,6.30
2017-08-25T21:02:43.230Z,5.80
2017-08-25T21:03:45.957Z,6.40
2017-08-25T21:04:48.747Z,6.67
2017-08-25T21:05:52.106Z,6.73
2017-08-25T21:06:55.246Z,6.07
2017-08-25T21:07:57.805Z,5.80
2017-08-25T21:09:00.418Z,6.10
2017-08-25T21:10:03.773Z,5.77
2017-08-25T21:11:06.370Z,6.23
2017-08-25T21:12:09.818Z,6.00
2017-08-25T21:13:12.625Z,5.60
2017-08-25T21:14:15.194Z,6.03
2017-08-25T21:15:17.772Z,6.43
2017-08-25T21:16:20.335Z,6.53
2017-08-25T21:17:23.047Z,6.23
2017-08-25T21:18:25.587Z,6.00
2017-08-25T21:19:28.212Z,7.03
2017-08-25T21:20:30.748Z,6.20
2017-08-25T21:21:33.359Z,7.00
2017-08-25T21:22:36.098Z,6.70
2017-08-25T21:23:38.723Z,6.30
2017-08-25T21:24:42.592Z,7.47
2017-08-25T21:25:45.127Z,6.83
2017-08-25T21:26:47.743Z,6.83
2017-08-25T21:27:50.307Z,6.93
2017-08-25T21:28:52.945Z,6.27
2017-08-25T21:29:55.530Z,8.13
2017-08-25T21:30:58.483Z,7.07
2017-08-25T21:32:01.819Z,6.43
2017-08-25T21:33:05.235Z,5.90
2017-08-25T21:34:07.788Z,6.90
2017-08-25T21:35:10.326Z,6.40
2017-08-25T21:36:12.863Z,6.50
2017-08-25T21:37:15.473Z,6.10
2017-08-25T21:38:18.164Z,7.37
2017-08-25T21:39:20.990Z,6.60
2017-08-25T21:40:23.636Z,7.30
2017-08-25T21:41:26.575Z,7.57
2017-08-25T21:42:29.461Z,6.67
2017-08-25T21:43:32.117Z,6.80
2017-08-25T21:44:34.667Z,7.00
2017-08-25T21:45:37.516Z,6.40
2017-08-25T21:46:40.086Z,7.00
2017-08-25T21:47:42.849Z,7.27
2017-08-25T21:48:45.488Z,6.77
2017-08-25T21:49:48.024Z,7.47
2017-08-25T21:50:50.889Z,7.07
2017-08-25T21:51:53.497Z,7.30
2017-08-25T21:52:56.251Z,8.90
2017-08-25T21:53:58.831Z,11.00
2017-08-25T21:55:01.479Z,11.77
2017-08-25T21:56:04.099Z,12.53
2017-08-25T21:57:07.001Z,12.50
2017-08-25T21:58:10.363Z,12.20
2017-08-25T21:59:12.988Z,13.43
2017-08-25T22:00:15.620Z,12.37
2017-08-25T22:01:18.268Z,14.20
2017-08-25T22:02:20.841Z,14.57
2017-08-25T22:03:23.390Z,15.20
2017-08-25T22:04:26.009Z,15.93
2017-08-25T22:05:28.561Z,16.10
2017-08-25T22:06:31.112Z,15.73
2017-08-25T22:07:33.667Z,14.23
2017-08-25T22:08:36.279Z,16.70
2017-08-25T22:09:39.151Z,15.50
2017-08-25T22:10:41.790Z,15.63
2017-08-25T22:11:44.495Z,15.10
2017-08-25T22:12:47.056Z,15.23
2017-08-25T22:13:50.391Z,15.37
2017-08-25T22:14:53.771Z,15.40
2017-08-25T22:15:56.947Z,17.10
2017-08-25T22:16:59.904Z,17.13
2017-08-25T22:18:02.444Z,17.30
2017-08-25T22:19:05.007Z,17.43
2017-08-25T22:20:08.614Z,17.07
2017-08-25T22:21:11.252Z,17.40
2017-08-25T22:22:13.783Z,16.53
2017-08-25T22:23:17.111Z,16.37
2017-08-25T22:24:19.745Z,16.27
2017-08-25T22:25:22.314Z,15.27
2017-08-25T22:26:24.890Z,15.43
2017-08-25T22:27:27.510Z,15.00
2017-08-25T22:28:30.134Z,12.40
2017-08-25T22:29:32.694Z,10.40
2017-08-25T22:30:35.244Z,11.37
2017-08-25T22:31:37.818Z,11.30
2017-08-25T22:32:40.580Z,10.77
2017-08-25T22:33:43.198Z,10.80
2017-08-25T22:34:45.835Z,10.13
2017-08-25T22:35:48.447Z,12.30
2017-08-25T22:36:51.258Z,11.70
2017-08-25T22:37:53.948Z,11.43
2017-08-25T22:38:56.496Z,11.37
2017-08-25T22:39:59.042Z,11.00
2017-08-25T22:41:02.508Z,11.27
2017-08-25T22:42:05.119Z,11.73
2017-08-25T22:43:07.653Z,11.20
2017-08-25T22:44:10.354Z,10.77
2017-08-25T22:45:12.972Z,14.07
2017-08-25T22:46:15.521Z,13.30
2017-08-25T22:47:18.173Z,10.70
2017-08-25T22:48:20.800Z,10.80
2017-08-25T22:49:23.556Z,11.30
2017-08-25T22:50:26.096Z,11.17
2017-08-25T22:51:28.684Z,10.50
2017-08-25T22:52:32.022Z,11.10
2017-08-25T22:53:34.554Z,11.10
2017-08-25T22:54:37.162Z,11.60
2017-08-25T22:55:39.702Z,10.43
2017-08-25T22:56:42.336Z,12.17
2017-08-25T22:57:44.957Z,10.07
2017-08-25T22:58:47.590Z,10.63
2017-08-25T22:59:50.142Z,11.43
2017-08-25T23:00:52.825Z,13.43
2017-08-25T23:01:55.370Z,13.57
2017-08-25T23:02:58.367Z,13.20
2017-08-25T23:04:01.731Z,14.10
2017-08-25T23:05:04.275Z,13.40
2017-08-25T23:06:06.884Z,12.53
2017-08-25T23:07:09.518Z,12.47
2017-08-25T23:08:12.058Z,12.80
2017-08-25T23:09:14.590Z,12.47
2017-08-25T23:10:17.825Z,13.20
2017-08-25T23:11:20.366Z,12.00
2017-08-25T23:12:22.906Z,13.23
2017-08-25T23:13:25.468Z,12.40
2017-08-25T23:14:28.164Z,12.47
2017-08-25T23:15:31.459Z,13.27
2017-08-25T23:16:34.022Z,11.83
2017-08-25T23:17:36.644Z,13.30
2017-08-25T23:18:39.215Z,12.30
2017-08-25T23:19:41.788Z,13.37
2017-08-25T23:20:44.415Z,12.27
2017-08-25T23:21:47.122Z,11.93
2017-08-25T23:22:49.767Z,11.93
2017-08-25T23:23:52.308Z,12.30
2017-08-25T23:24:54.878Z,13.27
2017-08-25T23:25:57.426Z,12.50
2017-08-25T23:27:00.004Z,14.07
2017-08-25T23:28:02.600Z,11.70
2017-08-25T23:29:05.212Z,12.13
2017-08-25T23:30:07.753Z,12.13
2017-08-25T23:31:10.375Z,12.80
2017-08-25T23:32:12.912Z,11.83
2017-08-25T23:33:15.552Z,12.10
2017-08-25T23:34:18.175Z,13.10
2017-08-25T23:35:20.727Z,12.60
2017-08-25T23:36:23.279Z,12.23
2017-08-25T23:37:25.933Z,12.60
2017-08-25T23:38:28.570Z,12.83
2017-08-25T23:39:31.119Z,12.80
2017-08-25T23:40:33.678Z,12.20
2017-08-25T23:41:36.262Z,12.07
2017-08-25T23:42:38.965Z,11.73
2017-08-25T23:43:41.828Z,12.73
2017-08-25T23:44:45.263Z,11.80
2017-08-25T23:45:47.807Z,11.97
2017-08-25T23:46:50.350Z,12.60
2017-08-25T23:47:52.938Z,12.20
2017-08-25T23:48:55.493Z,12.77
2017-08-25T23:49:58.034Z,11.90
2017-08-25T23:51:00.568Z,12.30
2017-08-25T23:52:03.103Z,11.50
2017-08-25T23:53:06.694Z,12.57
2017-08-25T23:54:10.047Z,11.40
2017-08-25T23:55:12.578Z,12.60
2017-08-25T23:56:15.884Z,12.43
2017-08-25T23:57:18.418Z,11.60
2017-08-25T23:58:20.958Z,11.40
2017-08-25T23:59:23.491Z,11.20
